Weather at Savannah Hilton Head International Airport

Public forecast

Using degrees Fahrenheit for public forecast. Weather courtesy of forecast.io.

Current aviation weather report (METAR) for Savannah Hilton Head International Airport

Retrieved 2020/11/30 09:53 UTC (55 minutes ago):

KSAV 300953Z AUTO 21007KT 7SM RA SCT020 SCT043 BKN090 20/18 A2969 RMK AO2 RAB02 SLP054 P0002 T02000183

Aviation forecast (TAF) for Savannah Hilton Head International Airport

Retrieved 2020/11/30 06:28 UTC (4 hours ago):

TAF KSAV 300520Z 3006/0106 19009KT 5SM -RA BR SCT003 OVC008 WS020/20040KT FM301000 22014G24KT P6SM VCSH SCT008 OVC025 TEMPO 3010/3014 5SM SHRA SCT004 BKN015 FM301400 25016G26KT P6SM SCT015 BKN035 TEMPO 3015/3018 P6SM BKN025